Time;durP1;ratioP1;P1;durP2;ratioP2;P2;SDS_P1;SDS_P2;PMS_P1;PMS_P2;Temp;Humidity;BMP_temperature;BMP_pressure;BME280_temperature;BME280_humidity;BME280_pressure;Samples;Min_cycle;Max_cycle;Signal;HPM_P1;HPM_P2
2023/06/10 02:09:22;;;;;;;3.85;1.30;;;14.10;59.90;;;;;;6264887;22;20093;-67
2023/06/10 02:11:50;;;;;;;4.53;1.35;;;14.20;59.80;;;;;;6272582;22;20027;-66
2023/06/10 02:14:18;;;;;;;2.75;1.10;;;14.20;59.50;;;;;;6273075;22;20474;-66
2023/06/10 02:16:46;;;;;;;4.30;1.20;;;14.30;59.10;;;;;;6273311;22;19999;-66
2023/06/10 02:19:14;;;;;;;5.55;1.38;;;14.20;59.30;;;;;;6246677;22;20023;-67
2023/06/10 02:21:42;;;;;;;3.78;1.33;;;14.30;59.30;;;;;;6271309;22;20411;-67
2023/06/10 02:24:09;;;;;;;4.97;1.23;;;14.30;59.10;;;;;;6272215;22;20019;-67
2023/06/10 02:26:36;;;;;;;3.65;1.48;;;14.30;58.60;;;;;;6273142;22;20004;-68
2023/06/10 02:29:04;;;;;;;3.50;1.30;;;14.40;58.20;;;;;;6273321;22;20057;-68
2023/06/10 02:31:31;;;;;;;4.22;1.35;;;14.40;57.70;;;;;;6273456;22;19999;-68
2023/06/10 02:33:59;;;;;;;3.85;1.15;;;14.50;57.50;;;;;;6273056;22;20007;-68
2023/06/10 02:36:27;;;;;;;2.63;1.00;;;14.50;56.20;;;;;;6273495;22;19999;-67
2023/06/10 02:38:55;;;;;;;5.07;1.15;;;14.40;55.50;;;;;;6243498;22;20059;-65
2023/06/10 02:41:24;;;;;;;2.47;0.90;;;14.40;54.80;;;;;;6273284;22;20015;-66
2023/06/10 02:43:52;;;;;;;2.80;1.10;;;14.40;55.00;;;;;;6274075;22;20023;-66
2023/06/10 02:46:19;;;;;;;5.15;1.15;;;14.50;54.60;;;;;;6272685;22;20759;-67
2023/06/10 02:48:49;;;;;;;1.98;1.17;;;14.50;54.60;;;;;;6272344;22;20031;-67
2023/06/10 02:51:16;;;;;;;3.10;1.07;;;14.50;54.70;;;;;;6246330;22;20408;-66
2023/06/10 02:53:44;;;;;;;3.10;1.08;;;14.60;54.50;;;;;;6273181;22;20038;-68
2023/06/10 02:56:12;;;;;;;3.28;1.20;;;14.70;54.20;;;;;;6272887;22;20023;-67
2023/06/10 02:58:39;;;;;;;2.80;1.10;;;14.70;53.90;;;;;;6272303;22;20075;-67
2023/06/10 03:01:09;;;;;;;4.53;1.30;;;14.80;53.60;;;;;;6272867;22;20335;-66
2023/06/10 03:03:40;;;;;;;2.83;1.00;;;14.70;53.70;;;;;;6272931;22;20015;-67
2023/06/10 03:06:10;;;;;;;2.22;1.20;;;14.80;53.30;;;;;;6273276;22;20004;-67
2023/06/10 03:08:37;;;;;;;4.67;1.10;;;14.80;53.50;;;;;;6272664;22;20019;-67
2023/06/10 03:11:05;;;;;;;6.13;1.25;;;14.70;53.20;;;;;;6272279;22;20020;-67
2023/06/10 03:13:33;;;;;;;2.63;1.10;;;14.80;52.80;;;;;;6272660;22;20004;-66
2023/06/10 03:16:03;;;;;;;2.60;0.98;;;14.80;52.70;;;;;;6272766;22;20008;-67
2023/06/10 03:18:30;;;;;;;2.75;0.98;;;14.80;53.50;;;;;;6272199;22;20012;-67
2023/06/10 03:20:57;;;;;;;3.78;1.20;;;14.80;53.70;;;;;;6272119;22;20035;-67
2023/06/10 03:23:27;;;;;;;3.38;1.10;;;14.80;52.50;;;;;;6272264;22;20012;-67
2023/06/10 03:25:54;;;;;;;2.97;1.00;;;14.80;52.60;;;;;;6273305;22;20365;-68
2023/06/10 03:28:22;;;;;;;2.95;1.33;;;14.90;53.00;;;;;;6273201;22;20011;-68
2023/06/10 03:30:51;;;;;;;2.85;0.90;;;14.80;53.80;;;;;;6272682;22;19999;-68
2023/06/10 03:33:18;;;;;;;3.92;1.45;;;14.80;53.80;;;;;;6272844;22;20012;-67
2023/06/10 03:35:46;;;;;;;2.90;1.10;;;14.80;53.00;;;;;;6272518;22;20414;-67
2023/06/10 03:38:13;;;;;;;1.70;0.90;;;14.90;52.10;;;;;;6270212;22;20019;-67
2023/06/10 03:40:41;;;;;;;2.78;1.30;;;14.90;52.60;;;;;;6273293;22;20370;-67
2023/06/10 03:43:08;;;;;;;3.67;1.00;;;15.00;52.80;;;;;;6272921;22;20490;-67
2023/06/10 03:45:36;;;;;;;1.73;0.93;;;15.00;52.90;;;;;;6272690;22;20010;-67
2023/06/10 03:48:04;;;;;;;5.28;1.48;;;15.00;53.20;;;;;;6272812;22;20020;-66
2023/06/10 03:50:31;;;;;;;3.10;1.15;;;15.00;53.00;;;;;;6272669;22;20022;-67
2023/06/10 03:52:59;;;;;;;2.72;1.05;;;15.00;52.70;;;;;;6272482;22;19995;-68
2023/06/10 03:55:26;;;;;;;1.63;1.00;;;15.00;52.90;;;;;;6272774;22;20004;-67
2023/06/10 03:57:54;;;;;;;3.97;1.35;;;15.00;52.80;;;;;;6272147;22;20119;-67
2023/06/10 04:00:22;;;;;;;3.78;1.08;;;15.00;53.00;;;;;;6272550;22;20018;-67
2023/06/10 04:02:51;;;;;;;2.72;1.40;;;15.00;53.50;;;;;;6272905;22;20002;-68
2023/06/10 04:05:22;;;;;;;3.63;1.20;;;15.00;53.70;;;;;;6270698;22;20122;-67
2023/06/10 04:07:49;;;;;;;5.50;1.33;;;15.00;53.50;;;;;;6245649;22;20006;-67
2023/06/10 04:10:17;;;;;;;4.00;1.20;;;15.10;53.60;;;;;;6270577;22;20023;-70
2023/06/10 04:12:45;;;;;;;3.67;1.30;;;15.00;53.10;;;;;;6271572;22;20078;-67
2023/06/10 04:15:13;;;;;;;3.53;1.20;;;15.10;53.10;;;;;;6272118;22;20015;-67
2023/06/10 04:17:40;;;;;;;3.13;1.20;;;15.10;52.80;;;;;;6272627;22;20404;-67
2023/06/10 04:20:09;;;;;;;4.05;1.00;;;15.10;53.20;;;;;;6271960;22;20323;-67
2023/06/10 04:22:37;;;;;;;6.40;1.38;;;15.20;52.10;;;;;;6272216;22;20011;-68
2023/06/10 04:25:04;;;;;;;2.47;1.10;;;15.20;51.10;;;;;;6271806;22;20050;-68
2023/06/10 04:27:32;;;;;;;2.92;1.10;;;15.30;51.30;;;;;;6272624;22;20015;-67
2023/06/10 04:29:59;;;;;;;3.90;1.20;;;15.30;51.20;;;;;;6272415;22;20043;-67
2023/06/10 04:32:26;;;;;;;2.55;1.40;;;15.30;51.60;;;;;;6272262;22;20003;-68
2023/06/10 04:34:54;;;;;;;2.83;1.10;;;15.30;51.60;;;;;;6270887;22;20050;-68
2023/06/10 04:37:21;;;;;;;2.42;1.13;;;15.30;51.40;;;;;;6271848;22;20512;-67
2023/06/10 04:39:49;;;;;;;2.03;1.02;;;15.30;51.50;;;;;;6269343;22;19996;-68
2023/06/10 04:42:16;;;;;;;2.70;1.13;;;15.30;51.60;;;;;;6271760;22;20008;-68
2023/06/10 04:44:44;;;;;;;6.10;1.60;;;15.30;51.70;;;;;;6272092;22;20022;-68
2023/06/10 04:47:11;;;;;;;4.60;1.20;;;15.30;52.30;;;;;;6271529;22;20500;-68
2023/06/10 04:49:38;;;;;;;3.25;1.15;;;15.30;52.10;;;;;;6271768;22;20083;-68
2023/06/10 04:52:06;;;;;;;5.25;1.50;;;15.30;53.00;;;;;;6271721;22;19999;-67
2023/06/10 04:54:33;;;;;;;5.18;1.40;;;15.30;52.60;;;;;;6271656;22;20087;-68
2023/06/10 04:57:01;;;;;;;2.97;1.20;;;15.30;52.80;;;;;;6271674;22;20036;-68
2023/06/10 04:59:29;;;;;;;5.65;1.35;;;15.30;52.60;;;;;;6271701;22;20011;-68
2023/06/10 05:01:57;;;;;;;3.10;1.50;;;15.30;52.50;;;;;;6272018;22;20030;-67
2023/06/10 05:04:24;;;;;;;2.88;1.10;;;15.30;52.00;;;;;;6271781;22;20039;-67
2023/06/10 05:06:53;;;;;;;5.13;1.20;;;15.30;51.90;;;;;;6271968;22;20011;-68
2023/06/10 05:09:20;;;;;;;3.15;1.40;;;15.30;51.60;;;;;;6271500;22;20077;-67
2023/06/10 05:11:48;;;;;;;2.40;1.23;;;15.30;51.80;;;;;;6271506;22;20027;-67
2023/06/10 05:14:19;;;;;;;6.25;2.38;;;15.30;51.60;;;;;;6272329;22;20502;-68
2023/06/10 05:16:46;;;;;;;8.02;2.45;;;15.40;51.70;;;;;;6271431;22;20030;-69
2023/06/10 05:19:13;;;;;;;22.95;9.20;;;15.40;51.50;;;;;;6271738;22;20110;-69
2023/06/10 05:21:41;;;;;;;4.97;2.28;;;15.40;51.20;;;;;;6269582;22;20007;-69
2023/06/10 05:24:09;;;;;;;13.68;4.50;;;15.40;51.10;;;;;;6270577;22;20011;-69
2023/06/10 05:26:37;;;;;;;8.60;2.88;;;15.50;50.60;;;;;;6272006;22;20018;-69
2023/06/10 05:29:05;;;;;;;25.98;8.30;;;15.50;50.70;;;;;;6271371;22;20007;-69
2023/06/10 05:31:33;;;;;;;11.65;4.28;;;15.60;51.00;;;;;;6244447;22;20070;-69
2023/06/10 05:34:00;;;;;;;6.40;2.38;;;15.50;51.20;;;;;;6270304;22;20011;-70
2023/06/10 05:36:28;;;;;;;3.35;1.27;;;15.50;51.10;;;;;;6270315;22;20449;-68
2023/06/10 05:38:55;;;;;;;6.55;3.28;;;15.50;50.70;;;;;;6268853;22;20089;-68
2023/06/10 05:41:23;;;;;;;4.32;1.50;;;15.50;50.90;;;;;;6271885;22;20115;-69
2023/06/10 05:43:50;;;;;;;11.10;3.60;;;15.50;50.80;;;;;;6269708;22;20015;-68
2023/06/10 05:46:17;;;;;;;16.05;5.30;;;15.50;50.20;;;;;;6269758;22;20062;-68
2023/06/10 05:48:45;;;;;;;9.27;3.53;;;15.60;50.20;;;;;;6271583;22;20039;-68
2023/06/10 05:51:12;;;;;;;10.52;4.80;;;15.60;51.60;;;;;;6271935;22;20000;-68
2023/06/10 05:53:40;;;;;;;15.88;4.65;;;15.60;52.70;;;;;;6270708;22;20075;-68
2023/06/10 05:56:07;;;;;;;5.90;3.17;;;15.50;53.80;;;;;;6270907;22;20011;-67
2023/06/10 05:58:35;;;;;;;7.10;2.85;;;15.50;54.50;;;;;;6270729;22;20386;-68
2023/06/10 06:01:02;;;;;;;10.48;3.30;;;15.50;55.20;;;;;;6244809;22;20089;-68
2023/06/10 06:03:30;;;;;;;5.97;2.00;;;15.40;56.00;;;;;;6271747;22;20133;-68
2023/06/10 06:05:57;;;;;;;4.90;2.00;;;15.40;56.30;;;;;;6269892;22;20007;-67
2023/06/10 06:08:25;;;;;;;6.68;2.17;;;15.40;56.50;;;;;;6270125;22;20338;-68
2023/06/10 06:10:52;;;;;;;5.97;2.40;;;15.40;56.90;;;;;;6270520;22;20030;-67
2023/06/10 06:13:19;;;;;;;9.35;2.45;;;15.30;57.10;;;;;;6271446;22;20065;-67
2023/06/10 06:15:47;;;;;;;5.88;1.83;;;15.30;57.20;;;;;;6271425;22;20062;-67
2023/06/10 06:18:15;;;;;;;4.75;1.67;;;15.30;57.30;;;;;;6271117;22;20011;-68
2023/06/10 06:20:42;;;;;;;10.38;2.00;;;15.30;57.40;;;;;;6271491;22;20034;-68
2023/06/10 06:23:10;;;;;;;6.40;2.15;;;15.30;57.80;;;;;;6270644;22;20439;-68
2023/06/10 06:25:38;;;;;;;5.60;1.70;;;15.30;58.10;;;;;;6271505;22;20020;-65
2023/06/10 06:28:08;;;;;;;5.28;1.63;;;15.20;58.40;;;;;;6271549;22;20047;-66
2023/06/10 06:30:36;;;;;;;3.88;1.80;;;15.20;58.40;;;;;;6273501;22;20520;-66
2023/06/10 06:33:04;;;;;;;6.22;1.60;;;15.20;58.40;;;;;;6272913;22;20354;-66
2023/06/10 06:35:34;;;;;;;7.00;1.55;;;15.20;58.60;;;;;;6272224;22;20023;-66
2023/06/10 06:38:03;;;;;;;5.22;1.60;;;15.20;58.70;;;;;;6270685;22;20012;-67
2023/06/10 06:40:31;;;;;;;5.50;1.63;;;15.10;58.90;;;;;;6272464;22;20057;-68
2023/06/10 06:42:58;;;;;;;8.40;1.85;;;15.10;58.80;;;;;;6273687;22;20035;-69
2023/06/10 06:45:26;;;;;;;7.65;1.98;;;15.00;58.90;;;;;;6272972;22;20028;-69
2023/06/10 06:47:53;;;;;;;8.45;2.00;;;15.00;59.00;;;;;;6272939;22;20379;-69
2023/06/10 06:50:21;;;;;;;5.53;1.92;;;15.00;58.70;;;;;;6272578;22;20031;-70
2023/06/10 06:52:48;;;;;;;3.97;1.50;;;15.00;58.80;;;;;;6273465;22;20011;-69
2023/06/10 06:55:15;;;;;;;5.03;1.60;;;15.00;58.80;;;;;;6273135;22;20450;-68
2023/06/10 06:57:43;;;;;;;4.82;1.45;;;15.00;59.00;;;;;;6272339;22;20015;-69
2023/06/10 07:00:11;;;;;;;5.38;2.03;;;15.00;59.50;;;;;;6272125;22;20007;-69
2023/06/10 07:02:38;;;;;;;4.95;1.70;;;15.00;59.70;;;;;;6272632;22;20007;-69
2023/06/10 07:05:07;;;;;;;6.72;1.50;;;15.00;59.90;;;;;;6272694;22;20022;-69
2023/06/10 07:07:34;;;;;;;3.97;1.63;;;14.90;60.20;;;;;;6272686;22;20031;-70
2023/06/10 07:10:02;;;;;;;8.43;1.90;;;15.00;60.60;;;;;;6271673;22;20024;-69
2023/06/10 07:12:29;;;;;;;2.63;1.42;;;14.90;60.70;;;;;;6272790;22;20010;-70
2023/06/10 07:14:57;;;;;;;4.43;1.70;;;14.90;60.80;;;;;;6273112;22;20003;-68
2023/06/10 07:17:24;;;;;;;6.50;1.98;;;14.90;60.90;;;;;;6272041;22;20003;-69
2023/06/10 07:19:51;;;;;;;9.40;1.98;;;14.80;61.10;;;;;;6272796;22;20007;-68
2023/06/10 07:22:19;;;;;;;4.55;1.75;;;14.80;60.90;;;;;;6272948;22;20011;-68
2023/06/10 07:24:47;;;;;;;7.35;2.17;;;14.80;61.00;;;;;;6271298;22;20023;-69
2023/06/10 07:27:14;;;;;;;3.78;1.85;;;14.80;61.00;;;;;;6272506;22;20330;-70
2023/06/10 07:29:42;;;;;;;9.45;2.30;;;14.70;61.10;;;;;;6270433;22;20079;-68
2023/06/10 07:32:09;;;;;;;7.00;3.10;;;14.70;61.30;;;;;;6272363;22;20075;-69
2023/06/10 07:34:37;;;;;;;8.20;3.08;;;14.70;61.50;;;;;;6271551;22;20667;-70
2023/06/10 07:37:04;;;;;;;6.95;3.17;;;14.70;61.80;;;;;;6272091;22;20431;-69
2023/06/10 07:39:32;;;;;;;6.15;2.85;;;14.70;62.20;;;;;;6266583;22;20015;-69
2023/06/10 07:41:59;;;;;;;8.77;3.08;;;14.70;62.30;;;;;;6271771;22;20099;-70
2023/06/10 07:44:27;;;;;;;7.93;2.80;;;14.70;62.50;;;;;;6272444;22;20031;-69
2023/06/10 07:46:54;;;;;;;11.80;3.85;;;14.70;62.70;;;;;;6271130;22;20011;-71
2023/06/10 07:49:22;;;;;;;5.63;2.88;;;14.70;63.00;;;;;;6270277;22;20428;-70
2023/06/10 07:51:50;;;;;;;7.00;2.83;;;14.70;63.20;;;;;;6270014;22;20042;-72
2023/06/10 07:54:18;;;;;;;8.43;3.30;;;14.70;63.50;;;;;;6270844;22;20032;-71
2023/06/10 07:56:45;;;;;;;9.80;3.30;;;14.70;63.80;;;;;;6271992;22;20406;-68
2023/06/10 07:59:14;;;;;;;8.80;3.53;;;14.70;63.90;;;;;;6270383;22;20015;-68
2023/06/10 08:01:42;;;;;;;9.07;3.60;;;14.70;64.00;;;;;;6271668;22;20071;-68
2023/06/10 08:04:10;;;;;;;9.80;3.97;;;14.70;64.00;;;;;;6271421;22;20011;-69
2023/06/10 08:06:37;;;;;;;9.80;4.53;;;14.70;64.00;;;;;;6271182;22;20018;-68
2023/06/10 08:09:05;;;;;;;10.05;4.35;;;14.70;64.10;;;;;;6269618;22;20705;-69
2023/06/10 08:11:32;;;;;;;12.85;4.60;;;14.60;64.20;;;;;;6271370;22;20055;-69
2023/06/10 08:13:59;;;;;;;12.35;4.70;;;14.60;64.30;;;;;;6272299;22;20030;-69
2023/06/10 08:16:27;;;;;;;11.80;4.63;;;14.50;64.40;;;;;;6266478;22;20056;-68
2023/06/10 08:18:54;;;;;;;16.30;4.28;;;14.50;64.80;;;;;;6269842;22;20068;-68
2023/06/10 08:21:22;;;;;;;11.93;4.63;;;14.50;65.20;;;;;;6269976;22;20130;-68
2023/06/10 08:23:52;;;;;;;11.73;4.55;;;14.50;65.40;;;;;;6269266;22;20095;-68
2023/06/10 08:26:20;;;;;;;13.38;4.50;;;14.40;65.40;;;;;;6269743;22;20081;-68
2023/06/10 08:28:47;;;;;;;10.50;4.78;;;14.40;65.40;;;;;;6270347;22;20034;-68
2023/06/10 08:31:14;;;;;;;8.13;3.97;;;14.40;65.50;;;;;;6270010;22;20008;-68
2023/06/10 08:33:43;;;;;;;10.10;4.30;;;14.30;66.10;;;;;;6270793;22;20450;-67
2023/06/10 08:36:10;;;;;;;13.02;4.53;;;14.30;66.50;;;;;;6271300;22;20007;-67
2023/06/10 08:38:38;;;;;;;11.02;4.70;;;14.20;66.80;;;;;;6267677;22;20004;-68
2023/06/10 08:41:06;;;;;;;10.52;4.53;;;14.20;67.20;;;;;;6270834;22;20052;-68
2023/06/10 08:43:39;;;;;;;10.35;4.75;;;14.10;67.60;;;;;;6242264;22;20073;-68
2023/06/10 08:46:08;;;;;;;15.00;4.90;;;14.10;67.80;;;;;;6213750;22;20051;-68
2023/06/10 08:48:36;;;;;;;12.55;4.90;;;14.00;68.10;;;;;;6217136;22;20046;-67
2023/06/10 08:51:05;;;;;;;13.48;5.50;;;14.00;68.40;;;;;;6269640;22;20003;-68
2023/06/10 08:53:34;;;;;;;11.68;5.07;;;14.00;68.40;;;;;;6244245;22;20420;-69
2023/06/10 08:56:02;;;;;;;10.38;5.43;;;13.90;68.60;;;;;;6242760;22;20003;-67
2023/06/10 08:58:29;;;;;;;9.57;4.63;;;13.90;68.70;;;;;;6243514;22;20007;-67
2023/06/10 09:00:57;;;;;;;13.95;5.45;;;13.90;68.80;;;;;;6243859;22;20031;-68
2023/06/10 09:03:24;;;;;;;11.30;5.22;;;13.80;68.90;;;;;;6244214;22;20022;-68
2023/06/10 09:05:52;;;;;;;10.93;5.32;;;13.80;69.10;;;;;;6271129;22;20012;-69
2023/06/10 09:08:19;;;;;;;12.98;5.82;;;13.70;69.40;;;;;;6270612;22;20011;-68
2023/06/10 09:10:47;;;;;;;12.45;6.22;;;13.70;70.00;;;;;;6269179;22;20339;-67
2023/06/10 09:18:05;;;;;;;17.08;6.85;;;13.70;70.50;;;;;;6270381;22;20020;-68
2023/06/10 09:20:32;;;;;;;12.02;6.68;;;13.60;70.60;;;;;;6218358;22;20015;-68
2023/06/10 09:23:01;;;;;;;17.67;7.47;;;13.70;70.80;;;;;;6270160;22;20014;-68
2023/06/10 09:25:38;;;;;;;17.90;7.07;;;13.60;70.80;;;;;;6242698;22;20154;-69
2023/06/10 09:28:12;;;;;;;15.00;6.53;;;13.60;70.90;;;;;;6242389;22;20000;-68
2023/06/10 09:30:40;;;;;;;13.27;5.90;;;13.60;71.10;;;;;;6270903;22;20078;-68
2023/06/10 09:33:18;;;;;;;12.73;6.20;;;13.50;71.20;;;;;;6269115;22;20083;-67
2023/06/10 09:35:49;;;;;;;16.10;6.68;;;13.50;71.80;;;;;;6269631;22;20004;-69
2023/06/10 09:38:21;;;;;;;14.88;6.43;;;13.40;72.10;;;;;;6266750;22;20003;-66
2023/06/10 09:40:55;;;;;;;12.93;6.18;;;13.40;72.10;;;;;;6270361;22;20015;-67
2023/06/10 09:43:22;;;;;;;16.58;6.85;;;13.30;72.20;;;;;;6271260;22;20012;-67
2023/06/10 09:45:53;;;;;;;13.57;6.78;;;13.30;72.60;;;;;;6265857;22;20026;-66
2023/06/10 09:48:23;;;;;;;12.45;6.82;;;13.30;72.80;;;;;;6242518;22;20015;-67
2023/06/10 09:50:50;;;;;;;20.38;8.05;;;13.20;72.60;;;;;;6270391;22;20358;-66
2023/06/10 09:53:18;;;;;;;14.90;7.63;;;13.20;72.80;;;;;;6270210;22;20058;-67
2023/06/10 09:55:46;;;;;;;16.33;8.13;;;13.20;72.90;;;;;;6242587;22;20004;-67
2023/06/10 09:58:13;;;;;;;17.30;7.97;;;13.10;73.00;;;;;;6230601;22;20004;-68
2023/06/10 10:00:40;;;;;;;14.95;8.43;;;13.00;73.10;;;;;;6270555;22;20008;-67
2023/06/10 10:03:08;;;;;;;15.82;8.43;;;13.10;73.10;;;;;;6270266;22;19995;-68
2023/06/10 10:05:35;;;;;;;18.17;8.35;;;13.10;73.30;;;;;;6271312;22;20008;-66
2023/06/10 10:08:03;;;;;;;16.67;8.75;;;13.10;73.30;;;;;;6271936;22;20003;-67
2023/06/10 10:10:30;;;;;;;17.40;8.00;;;13.10;73.40;;;;;;6272009;22;20367;-67
2023/06/10 10:12:58;;;;;;;17.30;8.85;;;13.10;73.60;;;;;;6270323;22;20062;-66
2023/06/10 10:15:29;;;;;;;19.23;8.60;;;13.10;73.50;;;;;;6239327;22;20023;-66
2023/06/10 10:18:06;;;;;;;19.98;8.68;;;13.20;73.80;;;;;;6245992;22;20016;-67
2023/06/10 10:20:35;;;;;;;19.17;8.05;;;13.10;73.80;;;;;;6245274;22;19999;-70
2023/06/10 10:23:04;;;;;;;17.88;8.50;;;13.10;73.50;;;;;;6244582;22;20008;-68
2023/06/10 10:25:38;;;;;;;18.83;8.30;;;13.00;73.80;;;;;;6245497;22;20015;-68
2023/06/10 10:28:12;;;;;;;15.50;7.28;;;12.90;74.10;;;;;;6220636;22;20431;-71
2023/06/10 10:30:53;;;;;;;19.10;7.20;;;13.00;74.20;;;;;;6270344;22;20065;-69
2023/06/10 10:33:31;;;;;;;14.90;7.00;;;12.90;74.00;;;;;;6246213;22;20015;-69
2023/06/10 10:35:58;;;;;;;18.98;7.53;;;12.90;74.70;;;;;;6243654;22;20007;-69
2023/06/10 10:38:25;;;;;;;16.50;6.90;;;12.80;74.80;;;;;;6242969;22;20008;-70
2023/06/10 10:40:55;;;;;;;15.93;7.82;;;12.80;74.80;;;;;;6219201;22;20022;-68
2023/06/10 10:43:22;;;;;;;21.38;8.73;;;12.70;75.00;;;;;;6243505;22;20079;-67
2023/06/10 10:46:00;;;;;;;15.43;8.88;;;12.80;74.60;;;;;;6232704;22;20506;-69
2023/06/10 10:48:34;;;;;;;22.00;10.38;;;12.80;74.10;;;;;;6270184;22;20007;-69
2023/06/10 10:51:01;;;;;;;20.85;9.25;;;12.80;73.80;;;;;;6270805;22;20090;-68
2023/06/10 10:53:29;;;;;;;17.35;8.80;;;12.70;74.30;;;;;;6271252;22;20004;-68
2023/06/10 10:56:09;;;;;;;18.17;8.43;;;12.70;75.40;;;;;;6271414;22;20003;-68
2023/06/10 10:58:36;;;;;;;17.42;9.00;;;12.60;75.20;;;;;;6271465;22;20022;-68
2023/06/10 11:01:17;;;;;;;23.80;10.13;;;12.60;75.10;;;;;;6244861;22;20014;-68
2023/06/10 11:03:47;;;;;;;17.20;8.30;;;12.60;75.10;;;;;;6272368;22;20022;-68
2023/06/10 11:06:15;;;;;;;;;;;12.60;74.90;;;;;;6271679;22;20014;-69
2023/06/10 11:08:43;;;;;;;16.33;8.07;;;12.50;74.80;;;;;;6271570;22;19907;-68
2023/06/10 11:11:28;;;;;;;15.02;8.25;;;12.50;74.70;;;;;;6270267;22;20181;-68
2023/06/10 11:47:37;;;;;;;12.88;6.47;;;12.40;74.60;;;;;;6267261;22;20050;-69
2023/06/10 11:50:05;;;;;;;16.58;6.80;;;12.40;73.70;;;;;;6271636;22;20094;-69
2023/06/10 11:52:37;;;;;;;15.50;7.32;;;12.40;73.50;;;;;;6269721;22;20054;-69
2023/06/10 11:55:05;;;;;;;15.35;6.68;;;12.40;73.50;;;;;;6268877;22;20007;-68
2023/06/10 11:57:35;;;;;;;13.20;6.25;;;12.40;73.50;;;;;;6269358;22;20063;-68
2023/06/10 12:00:09;;;;;;;14.52;6.53;;;12.40;73.40;;;;;;6242753;22;20011;-68
2023/06/10 12:02:37;;;;;;;11.82;6.38;;;12.30;74.00;;;;;;6269242;22;20030;-69
2023/06/10 12:05:14;;;;;;;12.40;6.25;;;12.30;73.90;;;;;;6268817;22;20404;-69
2023/06/10 12:07:42;;;;;;;11.88;5.78;;;12.30;73.30;;;;;;6268782;22;20054;-69
2023/06/10 12:10:09;;;;;;;10.65;5.43;;;12.30;72.80;;;;;;6270373;22;20037;-69
2023/06/10 12:12:37;;;;;;;12.25;5.13;;;12.40;72.50;;;;;;6270530;22;20033;-69
2023/06/10 12:15:05;;;;;;;11.50;5.10;;;12.40;71.70;;;;;;6219310;22;20464;-69
2023/06/10 12:17:33;;;;;;;11.98;5.22;;;12.40;71.40;;;;;;6268830;22;20054;-69
2023/06/10 12:20:03;;;;;;;12.43;5.43;;;12.40;71.10;;;;;;6270584;22;20018;-69
2023/06/10 12:22:41;;;;;;;11.93;5.35;;;12.30;71.10;;;;;;6244558;22;20680;-69
2023/06/10 12:25:09;;;;;;;13.05;4.72;;;12.30;71.00;;;;;;6269505;22;20011;-69
2023/06/10 12:27:37;;;;;;;10.05;4.60;;;12.30;72.00;;;;;;6270620;22;20030;-68
2023/06/10 12:30:06;;;;;;;10.15;4.90;;;12.20;71.90;;;;;;6243878;22;20384;-68
2023/06/10 12:32:43;;;;;;;8.40;4.00;;;12.20;72.10;;;;;;6270490;22;20007;-69
2023/06/10 12:35:12;;;;;;;11.27;4.72;;;12.20;73.10;;;;;;6269523;22;20003;-68
2023/06/10 12:37:41;;;;;;;10.68;5.00;;;12.10;72.60;;;;;;6243791;22;20012;-68
2023/06/10 12:40:09;;;;;;;7.95;4.38;;;12.10;72.80;;;;;;6266585;22;19999;-69
2023/06/10 12:42:39;;;;;;;9.13;4.55;;;12.10;72.90;;;;;;6270440;22;20090;-69
2023/06/10 12:45:08;;;;;;;11.27;5.20;;;12.00;72.60;;;;;;6270669;22;20019;-69
2023/06/10 13:19:55;;;;;;;5.55;2.90;;;12.00;72.70;;;;;;6265494;22;20858;-69
2023/06/10 13:22:23;;;;;;;8.68;3.30;;;12.00;72.20;;;;;;6271228;22;20035;-67
2023/06/10 13:24:51;;;;;;;8.13;3.70;;;12.00;72.00;;;;;;6270595;22;20043;-67
2023/06/10 13:27:19;;;;;;;8.07;3.80;;;12.00;71.60;;;;;;6243377;22;20003;-67
2023/06/10 13:29:46;;;;;;;7.75;3.45;;;12.10;71.70;;;;;;6273658;22;20007;-67
2023/06/10 13:32:13;;;;;;;9.20;3.83;;;12.00;72.30;;;;;;6273681;22;20486;-68
2023/06/10 13:34:41;;;;;;;8.63;3.83;;;12.00;71.80;;;;;;6274326;22;20004;-67
2023/06/10 13:37:08;;;;;;;8.02;3.58;;;12.00;71.40;;;;;;6274176;22;20000;-67
2023/06/10 13:39:36;;;;;;;7.22;3.08;;;12.00;71.60;;;;;;6275112;22;20481;-69
2023/06/10 13:42:03;;;;;;;6.28;3.35;;;12.00;72.30;;;;;;6274246;22;20003;-68
2023/06/10 13:44:33;;;;;;;14.02;3.30;;;12.00;72.10;;;;;;6274855;22;20449;-68
2023/06/10 13:47:00;;;;;;;6.82;3.22;;;11.90;71.70;;;;;;6267478;22;20003;-67
2023/06/10 13:49:28;;;;;;;6.65;3.20;;;11.80;72.70;;;;;;6265316;22;20008;-67
2023/06/10 13:51:55;;;;;;;6.50;3.55;;;11.70;73.70;;;;;;6275952;22;20003;-67
2023/06/10 13:54:23;;;;;;;6.15;3.22;;;11.70;73.70;;;;;;6275194;22;20330;-67
2023/06/10 13:56:50;;;;;;;7.03;3.47;;;11.60;73.10;;;;;;6276645;22;20000;-66
2023/06/10 13:59:19;;;;;;;7.03;3.67;;;11.60;73.10;;;;;;6275744;22;20018;-67
2023/06/10 14:01:46;;;;;;;6.97;4.05;;;11.50;73.10;;;;;;6249520;22;20422;-67
2023/06/10 14:04:14;;;;;;;11.45;4.10;;;11.50;73.60;;;;;;6273615;22;20015;-67
2023/06/10 14:06:41;;;;;;;10.38;4.20;;;11.50;74.30;;;;;;6274452;22;20347;-67
2023/06/10 14:09:09;;;;;;;10.52;4.88;;;11.50;74.60;;;;;;6274216;22;20411;-67
2023/06/10 14:11:36;;;;;;;7.88;3.97;;;11.40;75.20;;;;;;6275001;22;20003;-67
2023/06/10 14:14:04;;;;;;;10.10;4.72;;;11.40;75.30;;;;;;6275015;22;20008;-67
2023/06/10 14:16:31;;;;;;;9.45;4.13;;;11.40;75.20;;;;;;6274121;22;20003;-67
2023/06/10 14:35:16;;;;;;;13.70;6.55;;;11.40;78.60;;;;;;6268203;22;20023;-67
2023/06/10 14:37:43;;;;;;;15.38;6.65;;;11.30;79.10;;;;;;6273843;22;20027;-67
2023/06/10 14:40:11;;;;;;;14.93;7.03;;;11.30;79.20;;;;;;6273801;22;20339;-67
2023/06/10 14:42:38;;;;;;;10.73;6.25;;;11.20;79.50;;;;;;6273298;22;20080;-67
2023/06/10 14:45:07;;;;;;;12.45;6.60;;;11.20;79.80;;;;;;6273181;22;20012;-67
2023/06/10 14:47:34;;;;;;;15.23;6.85;;;11.20;80.00;;;;;;6273698;22;20000;-66
2023/06/10 14:50:01;;;;;;;12.05;6.30;;;11.20;80.10;;;;;;6273787;22;20004;-67
2023/06/10 14:52:29;;;;;;;14.48;6.35;;;11.20;80.20;;;;;;6275464;22;20010;-67
2023/06/10 14:54:56;;;;;;;11.75;6.32;;;11.20;79.90;;;;;;6276148;22;20049;-68
2023/06/10 14:57:24;;;;;;;13.52;6.22;;;11.10;80.00;;;;;;6275607;22;20003;-67
2023/06/10 14:59:51;;;;;;;11.23;6.78;;;11.10;79.90;;;;;;6275533;22;20003;-67
2023/06/10 15:02:19;;;;;;;12.50;6.18;;;11.00;80.00;;;;;;6273699;22;20007;-66
2023/06/10 15:04:46;;;;;;;13.95;6.38;;;11.10;80.00;;;;;;6274847;22;20081;-67
2023/06/10 15:07:17;;;;;;;13.65;6.50;;;11.10;79.80;;;;;;6272896;22;20014;-67
2023/06/10 15:09:45;;;;;;;12.50;6.22;;;11.10;79.90;;;;;;6272433;22;20007;-67
2023/06/10 15:12:12;;;;;;;11.00;5.80;;;11.00;80.00;;;;;;6273480;22;19999;-67
2023/06/10 15:14:39;;;;;;;9.05;5.35;;;11.00;80.00;;;;;;6273386;22;20014;-67
2023/06/10 15:17:07;;;;;;;13.05;6.00;;;11.00;80.10;;;;;;6273386;22;20382;-67
2023/06/10 15:19:34;;;;;;;11.57;5.95;;;11.00;80.20;;;;;;6274207;22;20007;-67
2023/06/10 15:22:02;;;;;;;12.55;5.72;;;11.00;80.20;;;;;;6276022;22;19999;-67
2023/06/10 15:24:29;;;;;;;15.85;6.20;;;11.00;80.20;;;;;;6275693;22;20085;-67
2023/06/10 15:26:57;;;;;;;10.55;5.30;;;11.00;80.10;;;;;;6275844;22;20003;-67
2023/06/10 15:29:24;;;;;;;11.27;6.40;;;10.90;80.90;;;;;;6275738;22;20507;-67
2023/06/10 15:31:52;;;;;;;10.55;5.63;;;10.90;80.50;;;;;;6276119;22;20389;-67
2023/06/10 15:34:19;;;;;;;10.57;5.53;;;10.80;80.20;;;;;;6276048;22;20015;-67
2023/06/10 15:36:47;;;;;;;11.13;5.50;;;10.80;80.20;;;;;;6273652;22;20010;-67
2023/06/10 15:39:15;;;;;;;11.27;5.63;;;10.80;80.20;;;;;;6273263;22;20011;-67
2023/06/10 15:41:42;;;;;;;12.85;6.00;;;10.70;80.60;;;;;;6273348;22;20008;-67
2023/06/10 15:44:10;;;;;;;10.00;5.55;;;10.70;80.60;;;;;;6273132;22;20007;-67
2023/06/10 15:46:37;;;;;;;12.05;5.65;;;10.70;80.60;;;;;;6273417;22;20004;-67
2023/06/10 15:49:05;;;;;;;9.75;4.82;;;10.70;80.40;;;;;;6244651;22;20007;-67
2023/06/10 15:51:32;;;;;;;18.77;5.38;;;10.60;80.10;;;;;;6274493;22;20004;-67
2023/06/10 15:53:59;;;;;;;11.77;5.47;;;10.60;80.10;;;;;;6274962;22;20031;-67
2023/06/10 15:56:27;;;;;;;12.32;5.10;;;10.60;80.10;;;;;;6275471;22;20071;-67
2023/06/10 15:58:54;;;;;;;12.55;5.88;;;10.70;80.20;;;;;;6274940;22;20014;-67
2023/06/10 16:01:22;;;;;;;13.90;5.68;;;10.70;80.40;;;;;;6275713;22;20027;-67
2023/06/10 16:03:49;;;;;;;9.20;5.25;;;10.70;80.30;;;;;;6274904;22;20008;-67
2023/06/10 16:06:17;;;;;;;11.15;5.25;;;10.70;80.20;;;;;;6275494;22;20331;-67
2023/06/10 16:08:45;;;;;;;11.10;5.07;;;10.70;80.10;;;;;;6275121;22;20006;-67
2023/06/10 16:11:13;;;;;;;11.90;4.97;;;10.70;80.00;;;;;;6275687;22;20016;-67
2023/06/10 16:13:43;;;;;;;10.45;5.05;;;10.70;79.90;;;;;;6275051;22;20423;-67
2023/06/10 16:16:10;;;;;;;14.35;5.43;;;10.60;80.00;;;;;;6275715;22;20090;-69
2023/06/10 16:18:38;;;;;;;11.85;5.35;;;10.60;80.10;;;;;;6275392;22;20319;-67
2023/06/10 16:21:05;;;;;;;10.38;5.18;;;10.50;80.20;;;;;;6274610;22;20006;-67
2023/06/10 16:23:33;;;;;;;12.80;4.90;;;10.60;80.20;;;;;;6273343;22;20007;-67